Aviation Digital Data Service (ADDS)

Output produced by METARs form (0649 UTC 28 August 2015)
found at http://aviationweather.gov/adds/metars/
 
KBPT 280553Z AUTO 24004KT 10SM CLR 22/21 A2998 RMK AO2 SLP152 T02170206 10306 20211 403280200 50001